createdAt,value
2022-11-27T00:01:35.336Z,16.97
2022-11-27T00:04:02.644Z,18.13
2022-11-27T00:06:31.286Z,13.47
2022-11-27T00:09:01.189Z,12.63
2022-11-27T00:11:30.638Z,15.03
2022-11-27T00:13:58.521Z,18.57
2022-11-27T00:16:27.462Z,17.40
2022-11-27T00:18:54.671Z,15.77
2022-11-27T00:21:25.913Z,13.57
2022-11-27T00:23:54.833Z,13.23
2022-11-27T00:26:23.145Z,12.97
2022-11-27T00:28:50.564Z,12.47
2022-11-27T00:31:22.133Z,16.27
2022-11-27T00:33:49.586Z,18.77
2022-11-27T00:36:16.761Z,17.53
2022-11-27T00:38:43.679Z,11.27
2022-11-27T00:41:24.638Z,14.03
2022-11-27T00:43:52.565Z,14.77
2022-11-27T00:46:28.029Z,17.17
2022-11-27T00:48:57.574Z,16.20
2022-11-27T00:51:25.783Z,13.47
2022-11-27T00:53:53.401Z,14.63
2022-11-27T00:56:28.129Z,12.93
2022-11-27T00:58:58.592Z,13.90
2022-11-27T01:01:39.111Z,15.50
2022-11-27T01:04:14.512Z,15.93
2022-11-27T01:06:42.800Z,14.23
2022-11-27T01:09:15.778Z,17.43
2022-11-27T01:11:42.912Z,15.97
2022-11-27T01:14:17.926Z,16.93
2022-11-27T01:16:48.602Z,14.50
2022-11-27T01:19:17.218Z,18.50
2022-11-27T01:21:49.817Z,15.33
2022-11-27T01:24:17.686Z,14.70
2022-11-27T01:26:45.313Z,15.93
2022-11-27T01:29:12.433Z,15.50
2022-11-27T01:31:40.731Z,18.63
2022-11-27T01:34:19.253Z,21.60
2022-11-27T01:36:46.264Z,21.00
2022-11-27T01:39:27.382Z,16.10
2022-11-27T01:41:54.298Z,15.77
2022-11-27T01:44:27.348Z,17.20
2022-11-27T01:47:09.687Z,14.97
2022-11-27T01:49:46.325Z,19.90
2022-11-27T01:52:31.435Z,16.10
2022-11-27T01:55:19.058Z,13.73
2022-11-27T01:57:54.533Z,21.17
2022-11-27T02:00:22.812Z,25.00
2022-11-27T02:02:50.130Z,12.90
2022-11-27T02:05:30.026Z,12.63
2022-11-27T02:08:12.474Z,13.63
2022-11-27T02:11:12.356Z,16.30
2022-11-27T02:13:51.476Z,18.40
2022-11-27T02:16:49.096Z,25.93
2022-11-27T02:19:30.572Z,22.00
2022-11-27T02:22:08.438Z,20.20
2022-11-27T02:25:13.741Z,18.80
2022-11-27T02:28:24.014Z,21.03
2022-11-27T02:31:03.607Z,19.97
2022-11-27T02:33:36.203Z,19.37
2022-11-27T02:36:22.785Z,15.80
2022-11-27T02:39:09.392Z,23.93
2022-11-27T02:41:48.411Z,16.40
2022-11-27T02:44:18.400Z,17.90
2022-11-27T02:46:47.761Z,21.70
2022-11-27T02:49:18.732Z,17.90
2022-11-27T02:51:56.473Z,21.87
2022-11-27T02:54:28.755Z,18.50
2022-11-27T02:56:58.466Z,18.43
2022-11-27T02:59:28.357Z,21.23
2022-11-27T03:02:01.515Z,15.73
2022-11-27T03:04:41.981Z,16.37
2022-11-27T03:08:05.334Z,18.43
2022-11-27T03:10:44.604Z,15.80
2022-11-27T03:13:11.764Z,21.73
2022-11-27T03:15:53.630Z,14.07
2022-11-27T03:19:12.800Z,20.40
2022-11-27T03:21:43.784Z,10.23
2022-11-27T03:24:12.198Z,19.67
2022-11-27T03:26:40.533Z,16.40
2022-11-27T03:29:16.640Z,16.43
2022-11-27T03:31:44.558Z,14.07
2022-11-27T03:34:15.610Z,17.73
2022-11-27T03:36:43.238Z,13.57
2022-11-27T03:39:10.248Z,14.23
2022-11-27T03:42:09.796Z,14.53
2022-11-27T03:44:59.696Z,16.87
2022-11-27T03:48:17.785Z,15.53
2022-11-27T03:51:16.052Z,15.53
2022-11-27T03:54:03.105Z,17.53
2022-11-27T03:56:48.722Z,13.97
2022-11-27T03:59:27.717Z,17.37
2022-11-27T04:01:54.814Z,15.97
2022-11-27T04:04:25.010Z,15.53
2022-11-27T04:06:51.940Z,8.13
2022-11-27T04:09:18.897Z,17.30
2022-11-27T04:11:45.932Z,14.83
2022-11-27T04:14:16.301Z,13.80
2022-11-27T04:16:43.265Z,14.60
2022-11-27T04:19:13.449Z,13.43
2022-11-27T04:21:44.081Z,10.27
2022-11-27T04:24:11.005Z,9.90
2022-11-27T04:26:40.989Z,10.53
2022-11-27T04:29:07.908Z,8.33
2022-11-27T04:31:37.636Z,14.50
2022-11-27T04:34:05.196Z,11.83
2022-11-27T04:36:39.261Z,7.27
2022-11-27T04:39:07.038Z,13.90
2022-11-27T04:41:35.921Z,8.67
2022-11-27T04:44:02.825Z,9.17
2022-11-27T04:46:29.920Z,10.10
2022-11-27T04:48:58.020Z,9.30
2022-11-27T04:51:25.164Z,16.07
2022-11-27T04:53:52.101Z,11.37
2022-11-27T04:56:22.522Z,8.63
2022-11-27T04:58:49.658Z,11.93
2022-11-27T05:01:18.476Z,12.80
2022-11-27T05:03:47.992Z,8.17
2022-11-27T05:06:15.056Z,10.60
2022-11-27T05:08:44.259Z,14.67
2022-11-27T05:11:14.907Z,11.80
2022-11-27T05:13:42.068Z,7.80
2022-11-27T05:16:09.695Z,10.50
2022-11-27T05:18:36.943Z,9.97
2022-11-27T05:21:08.495Z,9.37
2022-11-27T05:23:35.793Z,10.80
2022-11-27T05:26:03.563Z,10.00
2022-11-27T05:28:33.473Z,10.83
2022-11-27T05:31:00.475Z,10.73
2022-11-27T05:33:27.386Z,9.20
2022-11-27T05:35:55.519Z,9.27
2022-11-27T05:38:22.444Z,13.07
2022-11-27T05:40:49.363Z,11.00
2022-11-27T05:43:16.273Z,8.30
2022-11-27T05:45:43.210Z,10.63
2022-11-27T05:48:10.145Z,10.60
2022-11-27T05:50:37.052Z,10.97
2022-11-27T05:53:03.982Z,8.83
2022-11-27T05:55:34.459Z,14.77
2022-11-27T05:58:01.632Z,12.70
2022-11-27T06:00:28.629Z,12.57
2022-11-27T06:02:56.588Z,11.17
2022-11-27T06:05:23.870Z,11.97
2022-11-27T06:07:53.714Z,11.37
2022-11-27T06:10:20.662Z,11.33
2022-11-27T06:12:50.200Z,12.40
2022-11-27T06:15:18.312Z,14.17
2022-11-27T06:17:47.920Z,16.03
2022-11-27T06:20:20.273Z,11.50
2022-11-27T06:22:50.505Z,14.13
2022-11-27T06:25:17.652Z,10.63
2022-11-27T06:27:44.618Z,11.90
2022-11-27T06:30:12.481Z,8.40
2022-11-27T06:32:39.390Z,10.20
2022-11-27T06:35:07.128Z,10.93
2022-11-27T06:37:34.208Z,11.80
2022-11-27T06:40:01.500Z,9.57
2022-11-27T06:42:31.669Z,7.10
2022-11-27T06:44:58.653Z,15.13
2022-11-27T06:47:25.660Z,14.60
2022-11-27T06:49:52.907Z,12.70
2022-11-27T06:52:19.840Z,16.57
2022-11-27T06:54:46.799Z,15.13
2022-11-27T06:57:14.932Z,11.60
2022-11-27T06:59:42.006Z,13.17
2022-11-27T07:02:15.010Z,15.17
2022-11-27T07:04:42.322Z,12.17
2022-11-27T07:07:09.371Z,13.13
2022-11-27T07:09:36.456Z,11.50
2022-11-27T07:12:06.213Z,16.77
2022-11-27T07:14:33.117Z,10.53
2022-11-27T07:17:00.043Z,9.27
2022-11-27T07:19:26.965Z,11.23
2022-11-27T07:21:53.896Z,12.37
2022-11-27T07:24:20.975Z,10.77
2022-11-27T07:26:47.918Z,10.17
2022-11-27T07:29:14.863Z,9.30
2022-11-27T07:31:41.942Z,13.50
2022-11-27T07:34:14.232Z,10.63
2022-11-27T07:36:43.006Z,9.87
2022-11-27T07:39:09.961Z,14.70
2022-11-27T07:41:37.027Z,17.73
2022-11-27T07:44:04.123Z,7.93
2022-11-27T07:46:31.158Z,10.77
2022-11-27T07:49:00.369Z,8.73
2022-11-27T07:51:27.968Z,12.10
2022-11-27T07:53:57.992Z,11.90
2022-11-27T07:56:24.936Z,11.77
2022-11-27T07:58:51.913Z,8.50
2022-11-27T08:01:19.956Z,13.63
2022-11-27T08:03:47.347Z,13.70
2022-11-27T08:06:26.105Z,10.80
2022-11-27T08:08:56.023Z,14.37
2022-11-27T08:11:32.347Z,13.33
2022-11-27T08:14:05.840Z,11.70
2022-11-27T08:16:36.442Z,13.73
2022-11-27T08:19:04.038Z,12.77
2022-11-27T08:21:33.075Z,13.40
2022-11-27T08:24:00.007Z,14.20
2022-11-27T08:26:30.061Z,10.57
2022-11-27T08:28:57.536Z,15.23
2022-11-27T08:31:25.203Z,12.50
2022-11-27T08:33:52.408Z,16.03
2022-11-27T08:36:19.504Z,12.77
2022-11-27T08:38:47.261Z,12.70
2022-11-27T08:41:14.617Z,13.90
2022-11-27T08:43:41.766Z,12.30
2022-11-27T08:46:09.595Z,12.63
2022-11-27T08:48:36.661Z,12.70
2022-11-27T08:51:15.312Z,16.03
2022-11-27T08:53:45.597Z,11.77
2022-11-27T08:56:18.400Z,12.87
2022-11-27T08:58:45.963Z,12.63
2022-11-27T09:01:31.048Z,12.07
2022-11-27T09:03:58.450Z,13.60
2022-11-27T09:06:28.980Z,19.03
2022-11-27T09:08:58.259Z,12.53
2022-11-27T09:11:26.253Z,13.57
2022-11-27T09:13:53.383Z,13.83
2022-11-27T09:16:22.354Z,13.80
2022-11-27T09:18:52.468Z,13.23
2022-11-27T09:21:22.198Z,14.10
2022-11-27T09:23:54.293Z,16.30
2022-11-27T09:26:23.633Z,14.23
2022-11-27T09:28:50.994Z,12.67
2022-11-27T09:31:18.104Z,15.30
2022-11-27T09:33:45.834Z,15.87
2022-11-27T09:36:15.701Z,13.27
2022-11-27T09:38:42.806Z,18.33
2022-11-27T09:41:50.524Z,16.80
2022-11-27T09:44:33.485Z,15.43
2022-11-27T09:47:11.378Z,14.37
2022-11-27T09:50:18.301Z,14.07
2022-11-27T09:53:05.835Z,14.97
2022-11-27T09:55:45.088Z,16.97
2022-11-27T09:58:22.359Z,13.70
2022-11-27T10:00:49.457Z,17.67
2022-11-27T10:03:24.405Z,13.83
2022-11-27T10:06:28.631Z,20.53
2022-11-27T10:09:07.464Z,17.57
2022-11-27T10:12:11.118Z,14.20
2022-11-27T10:15:05.951Z,12.53
2022-11-27T10:18:02.767Z,11.87
2022-11-27T10:20:36.573Z,14.63
2022-11-27T10:23:49.411Z,13.80
2022-11-27T10:26:30.734Z,14.33
2022-11-27T10:29:17.712Z,16.00
2022-11-27T10:31:57.832Z,14.97
2022-11-27T10:34:40.887Z,12.80
2022-11-27T10:37:31.010Z,16.57
2022-11-27T10:40:15.645Z,13.60
2022-11-27T10:43:08.378Z,13.23
2022-11-27T10:46:05.786Z,13.90
2022-11-27T10:48:33.823Z,10.93
2022-11-27T10:51:00.903Z,16.70
2022-11-27T10:53:36.380Z,12.23
2022-11-27T10:56:12.599Z,12.57
2022-11-27T10:58:57.390Z,11.90
2022-11-27T11:01:27.157Z,10.63
2022-11-27T11:04:31.209Z,14.13
2022-11-27T11:06:56.129Z,18.90
2022-11-27T11:09:34.798Z,13.77
2022-11-27T11:12:21.060Z,10.00
2022-11-27T11:14:57.678Z,12.90
2022-11-27T11:17:37.141Z,11.07
2022-11-27T11:20:23.768Z,11.93
2022-11-27T11:22:51.643Z,14.10
2022-11-27T11:25:21.366Z,10.60
2022-11-27T11:27:50.577Z,12.03
2022-11-27T11:30:28.970Z,12.17
2022-11-27T11:33:04.277Z,15.47
2022-11-27T11:35:36.526Z,12.63
2022-11-27T11:38:07.701Z,15.57
2022-11-27T11:40:36.828Z,10.63
2022-11-27T11:43:19.098Z,10.60
2022-11-27T11:45:48.902Z,11.97
2022-11-27T11:48:27.854Z,10.60
2022-11-27T11:51:07.274Z,9.67
2022-11-27T11:53:40.689Z,11.93
2022-11-27T11:56:33.534Z,8.67
2022-11-27T11:59:20.244Z,8.70
2022-11-27T12:02:35.283Z,11.17
2022-11-27T12:05:17.410Z,6.23
2022-11-27T12:08:12.311Z,8.60
2022-11-27T12:11:17.043Z,12.53
2022-11-27T12:14:16.690Z,9.40
2022-11-27T12:17:36.459Z,10.23
2022-11-27T12:20:18.357Z,6.97
2022-11-27T12:23:00.484Z,7.97
2022-11-27T12:25:39.513Z,7.83
2022-11-27T12:28:12.301Z,10.43
2022-11-27T12:31:13.965Z,9.03
2022-11-27T12:34:06.960Z,7.33
2022-11-27T12:37:21.318Z,6.17
2022-11-27T12:40:01.186Z,14.97
2022-11-27T12:42:30.922Z,7.00
2022-11-27T12:45:15.813Z,8.43
2022-11-27T12:47:50.674Z,13.43
2022-11-27T12:50:32.847Z,7.93
2022-11-27T12:53:36.960Z,9.40
2022-11-27T12:56:26.667Z,10.93
2022-11-27T12:59:31.554Z,11.77
2022-11-27T13:02:49.175Z,9.73
2022-11-27T13:05:23.462Z,11.63
2022-11-27T13:08:02.605Z,9.70
2022-11-27T13:10:46.107Z,10.30
2022-11-27T13:13:37.525Z,11.17
2022-11-27T13:16:47.073Z,9.83
2022-11-27T13:19:30.774Z,13.73
2022-11-27T13:21:58.825Z,12.17
2022-11-27T13:24:28.792Z,7.83
2022-11-27T13:27:05.541Z,10.40
2022-11-27T13:29:45.811Z,11.97
2022-11-27T13:32:30.452Z,12.50
2022-11-27T13:35:04.362Z,10.23
2022-11-27T13:37:37.129Z,9.53
2022-11-27T13:40:17.738Z,11.00
2022-11-27T13:42:49.836Z,12.73
2022-11-27T13:45:31.472Z,8.10
2022-11-27T13:48:01.316Z,10.30
2022-11-27T13:50:43.244Z,10.80
2022-11-27T13:53:10.241Z,10.87
2022-11-27T13:55:40.768Z,11.10
2022-11-27T13:58:08.333Z,8.70
2022-11-27T14:00:39.375Z,13.67
2022-11-27T14:03:10.660Z,8.73
2022-11-27T14:05:42.744Z,11.23
2022-11-27T14:08:53.236Z,11.40
2022-11-27T14:11:36.658Z,8.50
2022-11-27T14:14:19.157Z,10.20
2022-11-27T14:16:59.162Z,10.07
2022-11-27T14:19:34.031Z,9.30
2022-11-27T14:22:14.285Z,9.30
2022-11-27T14:24:47.103Z,9.83
2022-11-27T14:27:24.867Z,13.20
2022-11-27T14:29:52.283Z,11.10
2022-11-27T14:32:21.016Z,6.97
2022-11-27T14:34:49.091Z,8.60
2022-11-27T14:37:28.884Z,12.57
2022-11-27T14:39:55.935Z,9.43
2022-11-27T14:42:35.259Z,8.80
2022-11-27T14:45:13.039Z,8.40
2022-11-27T14:47:56.777Z,7.40
2022-11-27T14:50:23.960Z,8.70
2022-11-27T14:52:56.356Z,10.63
2022-11-27T14:55:23.667Z,9.07
2022-11-27T14:57:54.261Z,8.70
2022-11-27T15:00:26.782Z,9.83
2022-11-27T15:02:54.280Z,8.30
2022-11-27T15:05:26.185Z,10.43
2022-11-27T15:07:58.245Z,11.13
2022-11-27T15:10:39.066Z,10.43
2022-11-27T15:13:08.891Z,8.93
2022-11-27T15:15:42.948Z,10.03
2022-11-27T15:18:22.258Z,12.00
2022-11-27T15:20:49.872Z,11.00
2022-11-27T15:23:30.820Z,11.37
2022-11-27T15:26:00.820Z,8.57
2022-11-27T15:28:57.092Z,13.03
2022-11-27T15:31:35.379Z,12.53
2022-11-27T15:34:14.267Z,10.13
2022-11-27T15:36:57.138Z,8.43
2022-11-27T15:39:38.860Z,10.97
2022-11-27T15:42:10.340Z,8.83
2022-11-27T15:44:38.375Z,7.93
2022-11-27T15:47:07.108Z,11.33
2022-11-27T15:49:34.083Z,7.40
2022-11-27T15:52:03.639Z,7.07
2022-11-27T15:54:30.580Z,7.43
2022-11-27T15:56:57.522Z,8.60
2022-11-27T15:59:25.164Z,10.27
2022-11-27T16:01:52.184Z,6.57
2022-11-27T16:04:19.147Z,5.90
2022-11-27T16:06:46.327Z,7.20
2022-11-27T16:09:13.563Z,6.20
2022-11-27T16:11:40.583Z,7.13
2022-11-27T16:14:07.661Z,8.00
2022-11-27T16:16:35.516Z,4.53
2022-11-27T16:19:05.445Z,6.20
2022-11-27T16:21:34.895Z,6.87
2022-11-27T16:24:05.603Z,8.30
2022-11-27T16:26:33.107Z,5.60
2022-11-27T16:29:00.427Z,7.53
2022-11-27T16:31:27.745Z,9.63
2022-11-27T16:33:55.188Z,5.60
2022-11-27T16:36:22.923Z,9.00
2022-11-27T16:38:54.219Z,7.13
2022-11-27T16:41:22.228Z,6.93
2022-11-27T16:43:52.778Z,5.37
2022-11-27T16:46:30.830Z,9.23
2022-11-27T16:48:59.286Z,9.77
2022-11-27T16:51:29.766Z,6.30
2022-11-27T16:53:59.559Z,7.93
2022-11-27T16:56:29.391Z,4.90
2022-11-27T16:59:02.607Z,6.50
2022-11-27T17:01:35.963Z,7.20
2022-11-27T17:04:07.179Z,6.57
2022-11-27T17:06:36.065Z,5.80
2022-11-27T17:09:06.408Z,5.50
2022-11-27T17:11:36.361Z,11.23
2022-11-27T17:14:07.934Z,5.40
2022-11-27T17:16:36.533Z,6.53
2022-11-27T17:19:04.277Z,5.57
2022-11-27T17:21:34.253Z,7.20
2022-11-27T17:24:05.510Z,7.20
2022-11-27T17:26:35.327Z,6.87
2022-11-27T17:29:03.575Z,6.37
2022-11-27T17:31:33.664Z,7.57
2022-11-27T17:34:00.943Z,5.33
2022-11-27T17:36:36.547Z,7.73
2022-11-27T17:39:06.945Z,7.63
2022-11-27T17:41:34.797Z,7.87
2022-11-27T17:44:05.466Z,7.17
2022-11-27T17:46:33.728Z,23.63
2022-11-27T17:49:03.398Z,7.77
2022-11-27T17:51:33.217Z,10.37
2022-11-27T17:54:02.208Z,7.93
2022-11-27T17:56:29.727Z,9.30
2022-11-27T17:58:56.856Z,8.27
2022-11-27T18:01:26.635Z,8.57
2022-11-27T18:04:01.417Z,9.87
2022-11-27T18:06:28.579Z,10.53
2022-11-27T18:08:57.379Z,9.20
2022-11-27T18:11:28.247Z,10.43
2022-11-27T18:13:55.553Z,10.17
2022-11-27T18:16:29.308Z,11.70
2022-11-27T18:18:58.104Z,8.83
2022-11-27T18:21:27.290Z,12.97
2022-11-27T18:29:29.841Z,9.83
2022-11-27T18:31:56.847Z,10.43
2022-11-27T18:34:24.296Z,10.53
2022-11-27T18:36:51.264Z,10.67
2022-11-27T18:39:18.592Z,7.73
2022-11-27T18:41:45.573Z,9.70
2022-11-27T18:44:12.544Z,9.60
2022-11-27T18:46:39.531Z,10.00
2022-11-27T18:49:06.690Z,8.60
2022-11-27T18:51:33.646Z,8.73
2022-11-27T18:54:00.677Z,8.93
2022-11-27T18:56:31.484Z,8.93
2022-11-27T18:59:04.456Z,12.00
2022-11-27T19:01:40.908Z,7.90
2022-11-27T19:04:09.767Z,8.60
2022-11-27T19:06:37.696Z,7.07
2022-11-27T19:09:05.822Z,8.97
2022-11-27T19:11:34.032Z,7.00
2022-11-27T19:14:01.771Z,8.23
2022-11-27T19:16:32.901Z,8.30
2022-11-27T19:19:02.227Z,7.57
2022-11-27T19:21:32.654Z,8.70
2022-11-27T19:24:02.551Z,9.53
2022-11-27T19:26:35.903Z,8.67
2022-11-27T19:29:08.245Z,9.53
2022-11-27T19:31:38.112Z,8.80
2022-11-27T19:34:06.667Z,12.83
2022-11-27T19:36:35.413Z,8.17
2022-11-27T19:39:07.219Z,9.70
2022-11-27T19:41:35.352Z,9.80
2022-11-27T19:44:04.841Z,10.63
2022-11-27T19:46:35.152Z,11.73
2022-11-27T19:49:09.799Z,12.17
2022-11-27T19:51:38.642Z,11.07
2022-11-27T19:54:10.371Z,9.23
2022-11-27T19:56:40.014Z,12.03
2022-11-27T19:59:09.458Z,11.53
2022-11-27T20:01:38.065Z,11.60
2022-11-27T20:04:06.435Z,8.80
2022-11-27T20:06:33.874Z,7.20
2022-11-27T20:09:04.668Z,9.87
2022-11-27T20:11:34.988Z,7.90
2022-11-27T20:14:04.614Z,8.47
2022-11-27T20:16:32.106Z,10.83
2022-11-27T20:18:59.197Z,9.90
2022-11-27T20:21:27.008Z,12.03
2022-11-27T20:23:55.093Z,10.00
2022-11-27T20:26:26.250Z,9.70
2022-11-27T20:28:54.564Z,8.27
2022-11-27T20:31:29.618Z,9.17
2022-11-27T20:34:00.774Z,13.97
2022-11-27T20:36:30.184Z,7.67
2022-11-27T20:39:00.133Z,7.60
2022-11-27T20:41:27.854Z,11.37
2022-11-27T20:44:01.254Z,10.40
2022-11-27T20:46:28.905Z,10.20
2022-11-27T20:48:56.605Z,10.43
2022-11-27T20:51:28.711Z,8.63
2022-11-27T20:53:58.577Z,10.07
2022-11-27T20:56:26.324Z,10.17
2022-11-27T20:58:53.251Z,10.97
2022-11-27T21:01:24.839Z,10.93
2022-11-27T21:03:54.219Z,10.00
2022-11-27T21:06:25.499Z,10.90
2022-11-27T21:08:52.999Z,8.80
2022-11-27T21:11:25.318Z,8.93
2022-11-27T21:14:00.520Z,7.63
2022-11-27T21:16:31.649Z,10.40
2022-11-27T21:19:02.798Z,9.87
2022-11-27T21:21:30.211Z,9.70
2022-11-27T21:23:57.347Z,9.67
2022-11-27T21:26:24.959Z,12.63
2022-11-27T21:28:52.153Z,8.13
2022-11-27T21:31:34.564Z,7.27
2022-11-27T21:34:06.973Z,8.07
2022-11-27T21:36:36.853Z,6.83
2022-11-27T21:39:08.467Z,8.43
2022-11-27T21:41:35.987Z,12.83
2022-11-27T21:44:06.521Z,7.53
2022-11-27T21:46:36.556Z,11.07
2022-11-27T21:49:07.045Z,8.40
2022-11-27T21:51:34.130Z,7.13
2022-11-27T21:54:01.092Z,11.53
2022-11-27T21:56:29.686Z,9.53
2022-11-27T21:58:56.666Z,8.17
2022-11-27T22:01:27.319Z,9.47
2022-11-27T22:03:57.625Z,7.97
2022-11-27T22:06:30.865Z,9.77
2022-11-27T22:08:59.177Z,6.63
2022-11-27T22:11:32.728Z,9.33
2022-11-27T22:14:08.080Z,7.97
2022-11-27T22:16:44.356Z,11.20
2022-11-27T22:19:12.669Z,10.03
2022-11-27T22:21:39.781Z,10.80
2022-11-27T22:24:07.355Z,7.53
2022-11-27T22:26:34.293Z,10.70
2022-11-27T22:29:01.206Z,10.00
2022-11-27T22:31:31.197Z,9.37
2022-11-27T22:33:58.235Z,14.77
2022-11-27T22:36:34.714Z,15.73
2022-11-27T22:39:05.435Z,10.40
2022-11-27T22:41:36.507Z,14.60
2022-11-27T22:44:16.056Z,12.70
2022-11-27T22:46:43.551Z,12.27
2022-11-27T22:49:16.594Z,11.43
2022-11-27T22:51:44.046Z,12.50
2022-11-27T22:54:14.907Z,9.07
2022-11-27T22:56:41.917Z,9.20
2022-11-27T23:01:57.021Z,7.53
2022-11-27T23:04:23.973Z,8.60
2022-11-27T23:06:50.877Z,10.67
2022-11-27T23:09:18.921Z,8.73
2022-11-27T23:11:46.815Z,7.40
2022-11-27T23:14:16.624Z,8.63
2022-11-27T23:16:43.681Z,8.77
2022-11-27T23:19:13.277Z,11.37
2022-11-27T23:21:40.362Z,6.93
2022-11-27T23:24:11.338Z,7.97
2022-11-27T23:26:38.235Z,9.97
2022-11-27T23:29:05.655Z,8.13
2022-11-27T23:31:38.248Z,10.50
2022-11-27T23:34:09.643Z,8.70
2022-11-27T23:36:36.959Z,11.43
2022-11-27T23:39:07.680Z,8.47
2022-11-27T23:41:34.815Z,7.47
2022-11-27T23:44:02.195Z,7.80
2022-11-27T23:46:30.900Z,6.90
2022-11-27T23:49:00.029Z,6.70
2022-11-27T23:51:32.724Z,8.43
2022-11-27T23:54:00.820Z,7.70
2022-11-27T23:56:31.966Z,8.67
2022-11-27T23:59:00.163Z,7.87
